createdAt,value
2018-05-21T00:01:14.725Z,8.00
2018-05-21T00:03:45.883Z,8.53
2018-05-21T00:06:17.001Z,7.47
2018-05-21T00:08:48.344Z,9.40
2018-05-21T00:11:18.729Z,8.37
2018-05-21T00:13:49.106Z,8.07
2018-05-21T00:16:19.465Z,7.07
2018-05-21T00:18:49.865Z,7.97
2018-05-21T00:21:21.004Z,6.67
2018-05-21T00:23:52.576Z,7.93
2018-05-21T00:26:24.743Z,7.03
2018-05-21T00:28:55.876Z,7.07
2018-05-21T00:31:26.249Z,7.33
2018-05-21T00:33:56.641Z,7.43
2018-05-21T00:36:28.468Z,7.67
2018-05-21T00:38:58.824Z,8.60
2018-05-21T00:41:29.216Z,7.57
2018-05-21T00:43:59.577Z,8.70
2018-05-21T00:46:30.713Z,8.33
2018-05-21T00:49:01.868Z,8.30
2018-05-21T00:51:32.944Z,7.90
2018-05-21T00:54:05.348Z,8.53
2018-05-21T00:56:35.923Z,7.50
2018-05-21T00:59:07.221Z,7.13
2018-05-21T01:01:37.578Z,8.07
2018-05-21T01:04:08.735Z,6.93
2018-05-21T01:06:39.857Z,5.90
2018-05-21T01:09:10.164Z,7.27
2018-05-21T01:11:40.556Z,8.63
2018-05-21T01:14:11.107Z,7.97
2018-05-21T01:16:41.478Z,11.47
2018-05-21T01:19:13.668Z,8.07
2018-05-21T01:21:44.038Z,12.47
2018-05-21T01:24:16.441Z,7.80
2018-05-21T01:26:47.584Z,8.70
2018-05-21T01:29:18.714Z,7.83
2018-05-21T01:31:49.288Z,8.10
2018-05-21T01:34:19.666Z,8.27
2018-05-21T01:36:50.217Z,7.77
2018-05-21T01:39:20.567Z,9.33
2018-05-21T01:41:50.951Z,9.33
2018-05-21T01:44:21.305Z,9.50
2018-05-21T01:46:52.435Z,10.20
2018-05-21T01:49:22.811Z,8.70
2018-05-21T01:51:53.185Z,11.47
2018-05-21T01:54:23.542Z,8.73
2018-05-21T01:56:53.930Z,11.43
2018-05-21T01:59:24.295Z,10.40
2018-05-21T02:01:54.667Z,11.50
2018-05-21T02:04:25.050Z,9.83
2018-05-21T02:06:56.478Z,8.17
2018-05-21T02:09:26.808Z,9.37
2018-05-21T02:11:57.952Z,9.40
2018-05-21T02:14:29.072Z,9.47
2018-05-21T02:16:59.438Z,11.20
2018-05-21T02:19:29.834Z,10.87
2018-05-21T02:22:00.196Z,9.73
2018-05-21T02:24:30.573Z,10.50
2018-05-21T02:27:01.010Z,9.83
2018-05-21T02:29:31.339Z,8.93
2018-05-21T02:32:02.487Z,11.50
2018-05-21T02:34:32.871Z,8.20
2018-05-21T02:37:03.184Z,6.50
2018-05-21T02:39:37.637Z,7.97
2018-05-21T02:42:08.029Z,10.37
2018-05-21T02:44:38.390Z,8.83
2018-05-21T02:47:08.751Z,7.57
2018-05-21T02:49:39.897Z,9.23
2018-05-21T02:52:11.029Z,9.33
2018-05-21T02:54:42.160Z,8.90
2018-05-21T02:57:12.551Z,10.00
2018-05-21T02:59:50.220Z,9.20
2018-05-21T03:02:20.604Z,9.33
2018-05-21T03:04:50.978Z,9.43
2018-05-21T03:07:21.339Z,9.57
2018-05-21T03:09:51.733Z,8.77
2018-05-21T03:12:22.105Z,7.73
2018-05-21T03:14:52.663Z,8.40
2018-05-21T03:17:23.814Z,8.53
2018-05-21T03:19:54.176Z,9.80
2018-05-21T03:22:24.541Z,9.23
2018-05-21T03:24:54.938Z,10.67
2018-05-21T03:27:25.308Z,8.37
2018-05-21T03:29:56.437Z,8.37
2018-05-21T03:32:26.822Z,7.87
2018-05-21T03:34:57.184Z,9.07
2018-05-21T03:37:27.554Z,9.73
2018-05-21T03:39:57.941Z,10.60
2018-05-21T03:42:28.305Z,9.10
2018-05-21T03:44:58.677Z,8.23
2018-05-21T03:47:29.058Z,11.97
2018-05-21T03:49:59.375Z,10.93
2018-05-21T03:55:21.169Z,8.57
2018-05-21T03:57:51.530Z,9.97
2018-05-21T04:01:16.840Z,9.33
2018-05-21T04:03:55.900Z,10.90
2018-05-21T04:06:26.236Z,10.33
2018-05-21T04:08:58.650Z,10.30
2018-05-21T04:11:29.024Z,10.70
2018-05-21T04:14:00.129Z,9.07
2018-05-21T04:16:30.508Z,12.87
2018-05-21T04:19:02.955Z,11.33
2018-05-21T04:21:34.104Z,10.73
2018-05-21T04:24:04.477Z,9.60
2018-05-21T04:26:35.041Z,9.60
2018-05-21T04:29:07.486Z,10.97
2018-05-21T04:31:37.860Z,11.13
2018-05-21T04:34:08.997Z,7.80
2018-05-21T04:36:40.163Z,10.07
2018-05-21T04:39:10.537Z,10.53
2018-05-21T04:41:41.197Z,11.10
2018-05-21T04:44:12.351Z,8.73
2018-05-21T04:46:43.482Z,10.20
2018-05-21T04:49:14.608Z,8.90
2018-05-21T04:51:44.996Z,9.60
2018-05-21T04:54:34.467Z,8.50
2018-05-21T04:57:09.600Z,10.43
2018-05-21T04:59:40.999Z,10.30
2018-05-21T05:02:11.351Z,9.30
2018-05-21T05:04:42.508Z,9.80
2018-05-21T05:07:12.872Z,9.83
2018-05-21T05:09:43.242Z,9.83
2018-05-21T05:12:14.386Z,11.43
2018-05-21T05:14:45.527Z,9.60
2018-05-21T05:17:16.647Z,9.60
2018-05-21T05:19:47.045Z,10.13
2018-05-21T05:22:24.555Z,9.73
2018-05-21T05:24:54.956Z,10.07
2018-05-21T05:27:31.457Z,9.60
2018-05-21T05:30:01.848Z,10.30
2018-05-21T05:32:32.221Z,9.90
2018-05-21T05:35:03.609Z,10.77
2018-05-21T05:37:34.193Z,10.47
2018-05-21T05:40:04.554Z,9.60
2018-05-21T05:42:35.687Z,10.40
2018-05-21T05:45:06.840Z,11.13
2018-05-21T05:47:37.977Z,9.23
2018-05-21T05:50:09.100Z,10.83
2018-05-21T05:52:39.486Z,9.83
2018-05-21T05:55:09.840Z,9.57
2018-05-21T05:57:41.224Z,10.57
2018-05-21T06:00:12.382Z,12.10
2018-05-21T06:02:42.749Z,12.80
2018-05-21T06:05:14.137Z,10.57
2018-05-21T06:07:45.297Z,11.77
2018-05-21T06:10:17.124Z,9.23
2018-05-21T06:12:47.486Z,11.07
2018-05-21T06:15:18.836Z,10.87
2018-05-21T06:17:49.205Z,11.30
2018-05-21T06:20:20.593Z,9.80
2018-05-21T06:22:51.756Z,10.27
2018-05-21T06:25:22.117Z,11.47
2018-05-21T06:27:52.490Z,12.97
2018-05-21T06:30:23.647Z,12.33
2018-05-21T06:32:54.010Z,11.30
2018-05-21T06:35:28.502Z,11.20
2018-05-21T06:37:59.577Z,12.03
2018-05-21T06:40:29.941Z,9.47
2018-05-21T06:43:00.319Z,12.37
2018-05-21T06:45:32.721Z,9.73
2018-05-21T06:48:03.308Z,11.03
2018-05-21T06:50:33.693Z,9.27
2018-05-21T06:53:03.999Z,9.80
2018-05-21T06:55:34.375Z,12.07
2018-05-21T06:58:05.534Z,11.97
2018-05-21T07:00:36.838Z,9.20
2018-05-21T07:03:07.208Z,11.53
2018-05-21T07:05:37.592Z,11.23
2018-05-21T07:08:07.969Z,12.27
2018-05-21T07:10:38.352Z,11.70
2018-05-21T07:13:08.749Z,10.30
2018-05-21T07:15:39.114Z,12.88
2018-05-21T07:18:10.249Z,14.13
2018-05-21T07:20:40.594Z,12.77
2018-05-21T07:23:11.720Z,10.53
2018-05-21T07:28:21.472Z,10.17
2018-05-21T07:30:51.842Z,9.90
2018-05-21T07:33:22.201Z,11.07
2018-05-21T07:35:55.665Z,11.40
2018-05-21T07:38:26.035Z,10.17
2018-05-21T07:40:56.404Z,10.47
2018-05-21T07:43:26.780Z,10.27
2018-05-21T07:45:57.662Z,9.10
2018-05-21T07:48:28.797Z,7.60
2018-05-21T07:50:59.954Z,6.73
2018-05-21T07:53:30.315Z,10.93
2018-05-21T07:56:04.574Z,10.03
2018-05-21T07:58:34.954Z,8.97
2018-05-21T08:01:06.336Z,10.47
2018-05-21T08:03:36.684Z,9.20
2018-05-21T08:06:07.848Z,10.70
2018-05-21T08:08:39.170Z,9.57
2018-05-21T08:11:09.526Z,9.77
2018-05-21T08:13:40.619Z,10.80
2018-05-21T08:16:11.004Z,9.73
2018-05-21T08:18:41.378Z,10.87
2018-05-21T08:21:11.776Z,10.63
2018-05-21T08:23:42.154Z,10.03
2018-05-21T08:26:13.234Z,10.90
2018-05-21T08:28:43.620Z,10.63
2018-05-21T08:31:14.742Z,8.50
2018-05-21T08:33:45.095Z,9.90
2018-05-21T08:36:16.249Z,10.00
2018-05-21T08:38:47.383Z,10.33
2018-05-21T08:41:18.508Z,11.23
2018-05-21T08:43:49.981Z,8.60
2018-05-21T08:46:21.123Z,10.50
2018-05-21T08:48:52.290Z,11.93
2018-05-21T08:51:22.645Z,13.17
2018-05-21T08:53:59.161Z,10.13
2018-05-21T08:56:29.604Z,11.73
2018-05-21T08:59:23.121Z,9.70
2018-05-21T09:01:53.515Z,10.00
2018-05-21T09:04:23.887Z,7.77
2018-05-21T09:06:54.272Z,11.93
2018-05-21T09:09:24.653Z,10.40
2018-05-21T09:11:55.799Z,9.67
2018-05-21T09:14:26.160Z,10.20
2018-05-21T09:16:57.995Z,9.13
2018-05-21T09:19:28.366Z,10.37
2018-05-21T09:21:58.745Z,12.47
2018-05-21T09:24:29.129Z,9.97
2018-05-21T09:27:04.690Z,8.90
2018-05-21T09:29:35.087Z,11.33
2018-05-21T09:32:05.454Z,12.77
2018-05-21T09:34:36.010Z,10.83
2018-05-21T09:37:07.170Z,9.10
2018-05-21T09:39:38.249Z,11.50
2018-05-21T09:42:29.806Z,12.00
2018-05-21T09:45:00.175Z,13.97
2018-05-21T09:47:30.541Z,9.90
2018-05-21T09:50:01.157Z,10.73
2018-05-21T09:52:33.514Z,10.87
2018-05-21T09:55:04.522Z,10.03
2018-05-21T09:57:35.667Z,9.83
2018-05-21T10:00:06.035Z,10.57
2018-05-21T10:02:37.464Z,12.97
2018-05-21T10:05:07.778Z,10.83
2018-05-21T10:07:38.904Z,11.73
2018-05-21T10:10:10.049Z,10.03
2018-05-21T10:12:40.435Z,10.10
2018-05-21T10:15:11.605Z,10.17
2018-05-21T10:17:41.990Z,10.60
2018-05-21T10:20:12.321Z,10.23
2018-05-21T10:22:46.774Z,12.63
2018-05-21T10:25:17.143Z,13.50
2018-05-21T10:27:47.530Z,12.63
2018-05-21T10:30:17.904Z,10.00
2018-05-21T10:32:48.277Z,13.10
2018-05-21T10:35:18.663Z,12.47
2018-05-21T10:37:49.022Z,12.40
2018-05-21T10:40:21.622Z,12.17
2018-05-21T10:42:52.053Z,9.03
2018-05-21T10:45:22.434Z,8.73
2018-05-21T10:47:53.599Z,11.13
2018-05-21T10:50:24.030Z,10.97
2018-05-21T10:52:54.408Z,10.70
2018-05-21T10:55:24.786Z,11.40
2018-05-21T10:57:55.395Z,11.17
2018-05-21T11:00:25.780Z,12.67
2018-05-21T11:02:56.926Z,11.27
2018-05-21T11:05:27.954Z,11.63
2018-05-21T11:07:58.403Z,12.35
2018-05-21T11:10:28.721Z,11.83
2018-05-21T11:13:01.183Z,10.73
2018-05-21T11:15:32.324Z,9.83
2018-05-21T11:18:03.856Z,10.60
2018-05-21T11:20:35.277Z,9.77
2018-05-21T11:23:05.592Z,9.60
2018-05-21T11:25:37.022Z,12.03
2018-05-21T11:28:07.371Z,10.57
2018-05-21T11:30:40.854Z,11.37
2018-05-21T11:33:11.223Z,9.90
2018-05-21T11:38:29.873Z,9.53
2018-05-21T11:41:00.634Z,9.80
2018-05-21T11:43:30.990Z,9.10
2018-05-21T11:46:02.140Z,10.10
2018-05-21T11:48:33.280Z,9.07
2018-05-21T11:51:03.646Z,9.67
2018-05-21T11:53:34.023Z,8.90
2018-05-21T11:56:04.417Z,9.50
2018-05-21T11:58:35.822Z,7.00
2018-05-21T12:01:06.940Z,9.87
2018-05-21T12:03:37.311Z,9.23
2018-05-21T12:06:07.680Z,8.27
2018-05-21T12:08:38.032Z,8.93
2018-05-21T12:11:09.190Z,8.10
2018-05-21T12:13:40.318Z,8.97
2018-05-21T12:16:11.449Z,6.97
2018-05-21T12:18:41.845Z,7.87
2018-05-21T12:21:12.207Z,7.47
2018-05-21T12:23:43.330Z,9.17
2018-05-21T12:26:13.734Z,14.43
2018-05-21T12:28:46.395Z,9.40
2018-05-21T12:31:16.700Z,14.23
2018-05-21T12:33:48.540Z,9.48
2018-05-21T12:36:18.912Z,10.67
2018-05-21T12:38:49.294Z,8.10
2018-05-21T12:41:19.678Z,8.00
2018-05-21T12:43:50.050Z,10.80
2018-05-21T12:46:21.201Z,8.10
2018-05-21T12:48:52.344Z,8.43
2018-05-21T12:51:23.479Z,9.53
2018-05-21T12:53:53.853Z,7.60
2018-05-21T12:56:24.258Z,8.93
2018-05-21T12:58:54.631Z,8.87
2018-05-21T13:01:46.429Z,8.70
2018-05-21T13:04:16.999Z,9.27
2018-05-21T13:06:47.373Z,9.57
2018-05-21T13:09:17.758Z,10.73
2018-05-21T13:11:48.126Z,11.53
2018-05-21T13:14:18.487Z,9.60
2018-05-21T13:16:48.818Z,7.93
2018-05-21T13:19:19.228Z,7.53
2018-05-21T13:21:51.650Z,10.37
2018-05-21T13:24:22.102Z,7.83
2018-05-21T13:26:53.628Z,11.50
2018-05-21T13:29:24.418Z,9.63
2018-05-21T13:31:54.815Z,11.23
2018-05-21T13:34:25.188Z,9.27
2018-05-21T13:36:56.590Z,9.77
2018-05-21T13:39:26.994Z,10.40
2018-05-21T13:41:57.350Z,9.37
2018-05-21T13:44:27.706Z,8.97
2018-05-21T13:47:16.415Z,7.83
2018-05-21T13:49:46.779Z,10.07
2018-05-21T13:52:17.184Z,9.73
2018-05-21T13:54:47.521Z,8.73
2018-05-21T13:57:17.881Z,7.40
2018-05-21T13:59:48.240Z,6.73
2018-05-21T14:02:19.388Z,6.83
2018-05-21T14:04:50.529Z,7.10
2018-05-21T14:07:21.898Z,9.57
2018-05-21T14:09:53.003Z,7.03
2018-05-21T14:12:23.372Z,15.17
2018-05-21T14:14:53.751Z,16.70
2018-05-21T14:17:24.148Z,19.90
2018-05-21T14:19:54.510Z,14.87
2018-05-21T14:22:24.868Z,9.80
2018-05-21T14:24:56.218Z,9.93
2018-05-21T14:27:26.582Z,8.60
2018-05-21T14:30:03.112Z,8.43
2018-05-21T14:32:34.245Z,8.30
2018-05-21T14:35:04.610Z,7.30
2018-05-21T14:37:34.990Z,7.20
2018-05-21T14:40:05.368Z,6.63
2018-05-21T14:42:43.066Z,6.40
2018-05-21T14:45:16.505Z,6.60
2018-05-21T14:47:46.866Z,6.33
2018-05-21T14:50:17.258Z,8.23
2018-05-21T14:52:47.621Z,5.87
2018-05-21T14:55:17.989Z,8.07
2018-05-21T14:57:48.371Z,6.37
2018-05-21T15:00:18.742Z,8.80
2018-05-21T15:02:49.115Z,6.50
2018-05-21T15:05:20.263Z,7.03
2018-05-21T15:07:51.586Z,5.87
2018-05-21T15:10:21.951Z,7.73
2018-05-21T15:12:52.528Z,7.97
2018-05-21T15:15:22.906Z,10.95
2018-05-21T15:17:53.231Z,8.33
2018-05-21T15:20:23.615Z,7.67
2018-05-21T15:22:53.989Z,7.87
2018-05-21T15:25:24.359Z,8.07
2018-05-21T15:27:55.505Z,9.13
2018-05-21T15:30:26.067Z,6.63
2018-05-21T15:32:57.394Z,5.93
2018-05-21T15:35:27.776Z,6.03
2018-05-21T15:38:00.185Z,6.97
2018-05-21T15:40:30.560Z,5.40
2018-05-21T15:43:00.961Z,7.63
2018-05-21T15:48:19.842Z,7.67
2018-05-21T15:50:50.870Z,10.30
2018-05-21T15:53:21.236Z,9.40
2018-05-21T15:55:51.615Z,7.40
2018-05-21T15:58:21.977Z,6.73
2018-05-21T16:00:52.345Z,7.60
2018-05-21T16:03:23.753Z,6.93
2018-05-21T16:05:54.118Z,6.40
2018-05-21T16:08:31.621Z,8.33
2018-05-21T16:11:03.706Z,6.87
2018-05-21T16:13:34.076Z,7.53
2018-05-21T16:16:04.658Z,7.93
2018-05-21T16:18:35.211Z,6.50
2018-05-21T16:21:06.348Z,7.13
2018-05-21T16:23:36.739Z,7.00
2018-05-21T16:26:07.110Z,5.70
2018-05-21T16:28:37.674Z,6.07
2018-05-21T16:31:10.113Z,8.33
2018-05-21T16:33:41.236Z,7.57
2018-05-21T16:36:11.555Z,7.17
2018-05-21T16:38:41.946Z,7.17
2018-05-21T16:41:12.304Z,7.07
2018-05-21T16:46:24.923Z,9.40
2018-05-21T16:48:55.296Z,9.90
2018-05-21T16:51:25.677Z,7.23
2018-05-21T16:53:57.169Z,7.77
2018-05-21T16:56:27.440Z,6.77
2018-05-21T16:58:57.806Z,7.10
2018-05-21T17:01:28.193Z,7.57
2018-05-21T17:04:04.689Z,6.93
2018-05-21T17:06:35.080Z,7.57
2018-05-21T17:09:07.489Z,7.23
2018-05-21T17:11:37.857Z,8.80
2018-05-21T17:14:09.000Z,6.73
2018-05-21T17:16:39.365Z,6.47
2018-05-21T17:19:11.785Z,7.70
2018-05-21T17:21:43.135Z,7.03
2018-05-21T17:24:13.446Z,6.53
2018-05-21T17:26:44.576Z,7.87
2018-05-21T17:29:14.977Z,7.03
2018-05-21T17:31:47.379Z,6.73
2018-05-21T17:34:17.737Z,6.87
2018-05-21T17:36:48.078Z,6.87
2018-05-21T17:39:18.439Z,7.17
2018-05-21T17:41:48.820Z,8.33
2018-05-21T17:44:19.208Z,8.00
2018-05-21T17:46:49.565Z,6.87
2018-05-21T17:49:20.689Z,7.30
2018-05-21T17:51:51.102Z,5.80
2018-05-21T17:54:21.662Z,6.17
2018-05-21T17:56:52.787Z,8.37
2018-05-21T17:59:23.168Z,6.93
2018-05-21T18:02:00.693Z,7.93
2018-05-21T18:04:31.183Z,6.60
2018-05-21T18:07:06.569Z,8.23
2018-05-21T18:09:37.968Z,7.03
2018-05-21T18:12:08.325Z,6.97
2018-05-21T18:14:41.832Z,6.03
2018-05-21T18:17:12.913Z,8.13
2018-05-21T18:19:44.690Z,6.90
2018-05-21T18:22:15.053Z,7.60
2018-05-21T18:25:04.806Z,8.97
2018-05-21T18:27:35.245Z,5.90
2018-05-21T18:30:05.544Z,7.03
2018-05-21T18:32:35.957Z,6.60
2018-05-21T18:35:07.104Z,6.97
2018-05-21T18:37:38.420Z,6.93
2018-05-21T18:40:08.805Z,6.30
2018-05-21T18:42:39.227Z,7.00
2018-05-21T18:45:09.529Z,6.47
2018-05-21T18:47:40.691Z,6.13
2018-05-21T18:50:11.049Z,6.23
2018-05-21T18:52:41.412Z,6.37
2018-05-21T18:55:11.797Z,6.23
2018-05-21T18:58:02.294Z,6.97
2018-05-21T19:00:44.612Z,6.37
2018-05-21T19:03:14.983Z,8.53
2018-05-21T19:05:46.103Z,5.63
2018-05-21T19:08:17.699Z,6.07
2018-05-21T19:10:48.121Z,7.93
2018-05-21T19:13:18.911Z,6.30
2018-05-21T19:15:49.312Z,6.90
2018-05-21T19:18:29.574Z,6.23
2018-05-21T19:20:59.985Z,6.90
2018-05-21T19:23:30.351Z,7.97
2018-05-21T19:26:00.727Z,8.20
2018-05-21T19:28:31.276Z,7.00
2018-05-21T19:31:02.286Z,7.40
2018-05-21T19:33:32.708Z,7.10
2018-05-21T19:36:03.104Z,6.30
2018-05-21T19:38:44.753Z,7.43
2018-05-21T19:41:15.088Z,7.17
2018-05-21T19:43:45.446Z,7.73
2018-05-21T19:46:22.428Z,8.50
2018-05-21T19:48:52.788Z,8.00
2018-05-21T19:51:23.933Z,6.87
2018-05-21T19:53:56.103Z,6.87
2018-05-21T19:56:32.125Z,6.03
2018-05-21T19:59:02.526Z,9.40
2018-05-21T20:01:40.045Z,7.07
2018-05-21T20:04:10.636Z,7.77
2018-05-21T20:06:40.987Z,9.37
2018-05-21T20:09:11.352Z,10.13
2018-05-21T20:11:42.512Z,9.07
2018-05-21T20:14:12.946Z,9.03
2018-05-21T20:16:43.251Z,8.17
2018-05-21T20:19:14.447Z,7.60
2018-05-21T20:21:45.467Z,6.77
2018-05-21T20:24:16.037Z,7.20
2018-05-21T20:26:47.428Z,5.77
2018-05-21T20:29:18.501Z,7.50
2018-05-21T20:31:50.941Z,7.00
2018-05-21T20:34:22.298Z,6.27
2018-05-21T20:36:52.682Z,7.50
2018-05-21T20:39:23.062Z,7.87
2018-05-21T20:41:59.134Z,5.83
2018-05-21T20:44:29.537Z,6.07
2018-05-21T20:47:07.973Z,6.57
2018-05-21T20:49:39.375Z,7.97
2018-05-21T20:52:15.388Z,5.60
2018-05-21T20:54:47.906Z,6.77
2018-05-21T20:57:29.267Z,5.50
2018-05-21T21:00:02.606Z,6.73
2018-05-21T21:02:33.949Z,5.70
2018-05-21T21:07:56.032Z,5.37
2018-05-21T21:10:27.370Z,6.00
2018-05-21T21:13:08.579Z,5.87
2018-05-21T21:15:38.986Z,8.10
2018-05-21T21:18:09.373Z,5.57
2018-05-21T21:20:45.371Z,6.63
2018-05-21T21:23:15.759Z,6.90
2018-05-21T21:25:58.569Z,6.13
2018-05-21T21:28:35.922Z,6.27
2018-05-21T21:31:06.260Z,5.80
2018-05-21T21:33:36.632Z,6.07
2018-05-21T21:36:07.761Z,8.33
2018-05-21T21:38:49.172Z,5.40
2018-05-21T21:41:19.559Z,5.07
2018-05-21T21:43:49.940Z,6.73
2018-05-21T21:46:20.330Z,6.50
2018-05-21T21:48:50.772Z,6.27
2018-05-21T21:51:28.168Z,5.73
2018-05-21T21:53:58.538Z,5.37
2018-05-21T21:56:49.068Z,6.17
2018-05-21T21:59:25.137Z,6.40
2018-05-21T22:01:55.559Z,5.23
2018-05-21T22:04:25.927Z,6.50
2018-05-21T22:06:56.318Z,5.83
2018-05-21T22:09:28.773Z,5.70
2018-05-21T22:11:59.147Z,6.47
2018-05-21T22:14:29.524Z,6.97
2018-05-21T22:16:59.903Z,6.73
2018-05-21T22:19:30.276Z,5.43
2018-05-21T22:22:00.650Z,6.20
2018-05-21T22:24:31.000Z,6.90
2018-05-21T22:27:01.384Z,7.57
2018-05-21T22:29:31.754Z,6.80
2018-05-21T22:32:02.160Z,5.57
2018-05-21T22:34:43.618Z,7.10
2018-05-21T22:37:13.993Z,6.80
2018-05-21T22:39:46.416Z,5.33
2018-05-21T22:42:16.793Z,7.53
2018-05-21T22:44:47.207Z,5.30
2018-05-21T22:47:17.521Z,6.37
2018-05-21T22:49:47.896Z,8.87
2018-05-21T22:52:18.946Z,6.07
2018-05-21T22:54:49.313Z,4.67
2018-05-21T22:57:20.702Z,5.87
2018-05-21T22:59:51.096Z,5.80
2018-05-21T23:02:21.467Z,6.33
2018-05-21T23:04:51.844Z,6.73
2018-05-21T23:07:22.440Z,5.57
2018-05-21T23:09:52.815Z,6.77
2018-05-21T23:12:24.238Z,5.60
2018-05-21T23:14:55.591Z,7.33
2018-05-21T23:17:25.963Z,7.33
2018-05-21T23:19:57.367Z,5.13
2018-05-21T23:22:44.879Z,5.00
2018-05-21T23:25:15.261Z,5.40
2018-05-21T23:27:45.635Z,6.90
2018-05-21T23:30:16.806Z,6.53
2018-05-21T23:32:47.199Z,5.47
2018-05-21T23:35:17.573Z,5.87
2018-05-21T23:37:54.170Z,4.77
2018-05-21T23:40:24.553Z,5.73
2018-05-21T23:42:54.927Z,5.20
2018-05-21T23:45:25.332Z,7.17
2018-05-21T23:48:14.046Z,6.47
2018-05-21T23:50:45.155Z,5.50
2018-05-21T23:53:15.525Z,7.43
2018-05-21T23:55:45.889Z,6.30
2018-05-21T23:58:16.503Z,6.13
